createdAt,value
2022-10-16T00:01:40.712Z,15.30
2022-10-16T00:04:26.219Z,15.30
2022-10-16T00:07:14.403Z,15.30
2022-10-16T00:10:02.899Z,15.30
2022-10-16T00:12:48.376Z,15.30
2022-10-16T00:15:37.859Z,15.30
2022-10-16T00:18:23.534Z,15.30
2022-10-16T00:21:12.595Z,15.30
2022-10-16T00:24:04.044Z,15.40
2022-10-16T00:26:51.743Z,15.40
2022-10-16T00:29:37.096Z,15.40
2022-10-16T00:32:22.299Z,15.40
2022-10-16T00:35:10.792Z,15.40
2022-10-16T00:37:55.956Z,15.40
2022-10-16T00:40:44.306Z,15.40
2022-10-16T00:43:34.291Z,15.40
2022-10-16T00:46:21.090Z,15.30
2022-10-16T00:49:10.771Z,15.40
2022-10-16T00:51:56.376Z,15.30
2022-10-16T00:54:42.102Z,15.30
2022-10-16T00:57:27.796Z,15.30
2022-10-16T01:00:20.363Z,15.30
2022-10-16T01:03:29.376Z,15.30
2022-10-16T01:06:29.586Z,15.30
2022-10-16T01:09:46.991Z,15.20
2022-10-16T01:12:41.152Z,15.20
2022-10-16T01:18:34.283Z,15.20
2022-10-16T01:21:31.383Z,15.10
2022-10-16T01:24:39.605Z,15.20
2022-10-16T01:27:34.112Z,15.10
2022-10-16T01:30:27.683Z,15.00
2022-10-16T01:33:29.230Z,15.00
2022-10-16T01:36:19.589Z,15.00
2022-10-16T01:39:10.027Z,15.00
2022-10-16T01:42:14.831Z,14.90
2022-10-16T01:45:01.464Z,14.90
2022-10-16T01:47:49.088Z,14.80
2022-10-16T01:50:38.831Z,14.70
2022-10-16T01:53:25.545Z,14.70
2022-10-16T01:56:13.944Z,14.70
2022-10-16T01:59:05.611Z,14.60
2022-10-16T02:01:59.948Z,14.60
2022-10-16T02:04:52.935Z,14.60
2022-10-16T02:07:38.507Z,14.60
2022-10-16T02:10:26.350Z,14.60
2022-10-16T02:13:20.015Z,14.60
2022-10-16T02:16:06.052Z,14.60
2022-10-16T02:18:51.795Z,14.60
2022-10-16T02:21:58.925Z,14.60
2022-10-16T02:24:55.394Z,14.60
2022-10-16T02:27:59.052Z,14.60
2022-10-16T02:30:49.396Z,14.60
2022-10-16T02:33:37.243Z,14.70
2022-10-16T02:36:23.137Z,14.60
2022-10-16T02:39:09.639Z,14.70
2022-10-16T02:41:57.829Z,14.70
2022-10-16T02:44:44.416Z,14.70
2022-10-16T02:47:29.897Z,14.70
2022-10-16T02:50:15.522Z,14.70
2022-10-16T02:53:00.902Z,14.70
2022-10-16T02:55:46.764Z,14.70
2022-10-16T02:58:32.095Z,14.60
2022-10-16T03:01:18.022Z,14.60
2022-10-16T03:04:03.919Z,14.60
2022-10-16T03:06:49.223Z,14.50
2022-10-16T03:09:35.032Z,14.50
2022-10-16T03:12:20.401Z,14.50
2022-10-16T03:15:07.806Z,14.50
2022-10-16T03:17:53.324Z,14.60
2022-10-16T03:20:38.787Z,14.60
2022-10-16T03:23:24.531Z,14.70
2022-10-16T03:26:09.952Z,14.60
2022-10-16T03:28:55.824Z,14.70
2022-10-16T03:31:41.341Z,14.70
2022-10-16T03:34:26.780Z,14.70
2022-10-16T03:37:12.379Z,14.70
2022-10-16T03:39:57.646Z,14.70
2022-10-16T03:42:44.115Z,14.70
2022-10-16T03:45:29.978Z,14.70
2022-10-16T03:48:15.203Z,14.70
2022-10-16T03:51:00.868Z,14.60
2022-10-16T03:53:46.255Z,14.60
2022-10-16T03:56:34.309Z,14.60
2022-10-16T03:59:19.729Z,14.70
2022-10-16T04:02:05.222Z,14.70
2022-10-16T04:04:50.874Z,14.70
2022-10-16T04:07:36.639Z,14.60
2022-10-16T04:10:21.825Z,14.60
2022-10-16T04:13:07.388Z,14.50
2022-10-16T04:15:56.170Z,14.50
2022-10-16T04:18:41.312Z,14.40
2022-10-16T04:21:27.082Z,14.40
2022-10-16T04:24:12.492Z,14.40
2022-10-16T04:26:58.042Z,14.40
2022-10-16T04:29:43.280Z,14.40
2022-10-16T04:32:28.645Z,14.40
2022-10-16T04:35:14.411Z,14.40
2022-10-16T04:38:00.083Z,14.50
2022-10-16T04:40:46.011Z,14.50
2022-10-16T04:43:31.232Z,14.40
2022-10-16T04:46:19.471Z,14.40
2022-10-16T04:49:04.828Z,14.50
2022-10-16T04:51:50.269Z,14.50
2022-10-16T04:54:39.861Z,14.60
2022-10-16T04:57:25.764Z,14.60
2022-10-16T05:00:12.234Z,14.60
2022-10-16T05:02:58.069Z,14.60
2022-10-16T05:05:45.531Z,14.70
2022-10-16T05:08:30.959Z,14.70
2022-10-16T05:11:20.628Z,14.70
2022-10-16T05:14:06.295Z,14.70
2022-10-16T05:16:51.804Z,14.70
2022-10-16T05:19:37.414Z,14.70
2022-10-16T05:22:23.465Z,14.70
2022-10-16T05:25:09.087Z,14.80
2022-10-16T05:27:57.499Z,14.80
2022-10-16T05:30:42.921Z,14.80
2022-10-16T05:33:28.476Z,14.80
2022-10-16T05:36:14.244Z,14.80
2022-10-16T05:38:59.408Z,14.80
2022-10-16T05:41:45.234Z,14.80
2022-10-16T05:44:31.180Z,14.80
2022-10-16T05:47:16.491Z,14.80
2022-10-16T05:50:02.108Z,14.80
2022-10-16T05:52:49.495Z,14.90
2022-10-16T05:55:34.908Z,14.90
2022-10-16T05:58:20.548Z,14.90
2022-10-16T06:01:10.290Z,14.90
2022-10-16T06:04:00.256Z,14.90
2022-10-16T06:06:45.539Z,14.90
2022-10-16T06:09:31.283Z,14.90
2022-10-16T06:12:19.919Z,14.90
2022-10-16T06:15:08.566Z,14.90
2022-10-16T06:17:53.933Z,15.00
2022-10-16T06:20:42.712Z,15.00
2022-10-16T06:23:29.853Z,15.00
2022-10-16T06:26:17.902Z,15.00
2022-10-16T06:29:03.629Z,15.10
2022-10-16T06:31:49.312Z,15.10
2022-10-16T06:34:35.320Z,15.10
2022-10-16T06:37:23.076Z,15.10
2022-10-16T06:40:09.749Z,15.10
2022-10-16T06:43:01.146Z,15.10
2022-10-16T06:45:57.518Z,15.10
2022-10-16T06:48:43.964Z,15.10
2022-10-16T06:51:29.656Z,15.10
2022-10-16T06:54:16.999Z,15.10
2022-10-16T06:57:02.726Z,15.10
2022-10-16T06:59:51.009Z,15.10
2022-10-16T07:02:39.178Z,15.10
2022-10-16T07:05:25.410Z,15.10
2022-10-16T07:08:11.145Z,15.10
2022-10-16T07:11:10.514Z,15.00
2022-10-16T07:13:59.549Z,15.00
2022-10-16T07:16:45.079Z,14.90
2022-10-16T07:19:33.422Z,14.90
2022-10-16T07:22:19.902Z,14.90
2022-10-16T07:25:06.005Z,15.00
2022-10-16T07:27:51.566Z,14.90
2022-10-16T07:30:38.135Z,14.90
2022-10-16T07:33:23.523Z,14.90
2022-10-16T07:36:11.424Z,14.90
2022-10-16T07:39:00.697Z,14.90
2022-10-16T07:41:46.259Z,15.00
2022-10-16T07:44:31.489Z,15.00
2022-10-16T07:47:17.190Z,15.00
2022-10-16T07:50:06.175Z,15.00
2022-10-16T07:52:51.746Z,15.00
2022-10-16T07:55:37.425Z,15.10
2022-10-16T07:58:25.439Z,15.10
2022-10-16T08:01:14.218Z,15.20
2022-10-16T08:03:59.577Z,15.30
2022-10-16T08:06:45.209Z,15.30
2022-10-16T08:09:30.879Z,15.30
2022-10-16T08:12:18.869Z,15.40
2022-10-16T08:15:08.234Z,15.40
2022-10-16T08:18:02.635Z,15.50
2022-10-16T08:20:47.976Z,15.50
2022-10-16T08:23:34.614Z,15.60
2022-10-16T08:26:29.032Z,15.60
2022-10-16T08:29:15.267Z,15.60
2022-10-16T08:32:00.844Z,15.70
2022-10-16T08:34:46.024Z,15.70
2022-10-16T08:37:34.064Z,15.90
2022-10-16T08:43:48.298Z,16.30
2022-10-16T08:46:57.985Z,16.50
2022-10-16T08:49:51.300Z,16.50
2022-10-16T08:52:41.192Z,16.60
2022-10-16T08:55:47.324Z,16.60
2022-10-16T08:58:32.962Z,16.60
2022-10-16T09:01:20.845Z,16.60
2022-10-16T09:04:40.964Z,16.60
2022-10-16T09:07:51.147Z,16.70
2022-10-16T09:10:43.176Z,16.70
2022-10-16T09:13:35.496Z,16.80
2022-10-16T09:16:50.228Z,16.80
2022-10-16T09:19:44.864Z,16.80
2022-10-16T09:22:32.431Z,16.90
2022-10-16T09:25:22.765Z,17.00
2022-10-16T09:28:10.191Z,17.00
2022-10-16T09:30:55.613Z,17.00
2022-10-16T09:33:42.573Z,17.10
2022-10-16T09:36:30.345Z,17.10
2022-10-16T09:39:17.159Z,17.10
2022-10-16T09:42:05.353Z,17.10
2022-10-16T09:44:52.479Z,17.20
2022-10-16T09:47:43.423Z,17.30
2022-10-16T09:50:30.169Z,17.50
2022-10-16T09:53:18.562Z,17.60
2022-10-16T09:56:10.289Z,17.90
2022-10-16T09:59:02.039Z,18.00
2022-10-16T10:01:48.882Z,18.10
2022-10-16T10:04:54.893Z,18.30
2022-10-16T10:07:47.272Z,18.40
2022-10-16T10:10:38.134Z,18.60
2022-10-16T10:13:25.750Z,18.60
2022-10-16T10:16:11.122Z,18.60
2022-10-16T10:19:02.384Z,18.70
2022-10-16T10:21:52.584Z,18.70
2022-10-16T10:24:39.156Z,18.50
2022-10-16T10:27:40.051Z,18.60
2022-10-16T10:30:49.698Z,18.90
2022-10-16T10:33:44.239Z,18.90
2022-10-16T10:36:38.037Z,18.70
2022-10-16T10:39:31.395Z,18.60
2022-10-16T10:42:46.040Z,18.50
2022-10-16T10:45:37.363Z,18.40
2022-10-16T10:48:43.803Z,18.30
2022-10-16T10:51:54.792Z,18.30
2022-10-16T10:55:01.657Z,18.30
2022-10-16T10:58:07.934Z,18.30
2022-10-16T11:01:08.326Z,18.40
2022-10-16T11:04:12.891Z,18.60
2022-10-16T11:07:05.718Z,18.70
2022-10-16T11:09:56.960Z,18.80
2022-10-16T11:13:06.159Z,18.80
2022-10-16T11:15:55.645Z,19.20
2022-10-16T11:18:57.914Z,19.50
2022-10-16T11:22:04.756Z,19.70
2022-10-16T11:28:17.408Z,20.00
2022-10-16T11:31:18.223Z,20.90
2022-10-16T11:34:34.275Z,22.10
2022-10-16T11:37:27.958Z,22.60
2022-10-16T11:40:34.555Z,23.10
2022-10-16T11:43:39.076Z,23.60
2022-10-16T11:46:26.988Z,23.70
2022-10-16T11:49:19.627Z,24.40
2022-10-16T11:52:26.709Z,25.20
2022-10-16T11:55:33.447Z,25.90
2022-10-16T11:58:33.603Z,26.60
2022-10-16T12:01:31.842Z,26.50
2022-10-16T12:04:35.164Z,27.00
2022-10-16T12:07:33.171Z,27.70
2022-10-16T12:13:36.001Z,29.00
2022-10-16T12:16:23.279Z,29.50
2022-10-16T12:19:15.460Z,29.00
2022-10-16T12:22:04.455Z,28.00
2022-10-16T12:24:52.970Z,28.10
2022-10-16T12:27:39.063Z,28.30
2022-10-16T12:30:29.021Z,28.20
2022-10-16T12:33:36.251Z,28.30
2022-10-16T12:36:29.283Z,28.60
2022-10-16T12:39:25.967Z,28.50
2022-10-16T12:42:23.538Z,28.50
2022-10-16T12:45:27.987Z,28.60
2022-10-16T12:48:22.552Z,28.60
2022-10-16T12:51:19.966Z,28.60
2022-10-16T12:54:14.103Z,28.80
2022-10-16T12:57:35.519Z,28.90
2022-10-16T13:00:36.638Z,28.10
2022-10-16T13:03:55.531Z,27.00
2022-10-16T13:06:52.502Z,26.30
2022-10-16T13:09:59.610Z,26.30
2022-10-16T13:13:22.877Z,26.00
2022-10-16T13:16:39.991Z,25.70
2022-10-16T13:19:42.628Z,25.50
2022-10-16T13:23:02.292Z,25.30
2022-10-16T13:26:05.579Z,25.30
2022-10-16T13:28:51.164Z,25.10
2022-10-16T13:31:40.046Z,24.90
2022-10-16T13:34:26.704Z,24.60
2022-10-16T13:37:26.625Z,24.20
2022-10-16T13:40:30.386Z,23.90
2022-10-16T13:43:17.933Z,23.70
2022-10-16T13:46:06.708Z,23.60
2022-10-16T13:49:04.218Z,23.50
2022-10-16T13:51:57.624Z,23.50
2022-10-16T13:54:43.330Z,23.40
2022-10-16T13:57:28.663Z,23.40
2022-10-16T14:00:32.781Z,23.20
2022-10-16T14:03:20.974Z,23.00
2022-10-16T14:06:13.059Z,22.80
2022-10-16T14:08:58.720Z,22.50
2022-10-16T14:11:57.610Z,22.30
2022-10-16T14:14:49.318Z,22.10
2022-10-16T14:17:36.568Z,22.00
2022-10-16T14:20:27.925Z,21.80
2022-10-16T14:23:32.919Z,21.60
2022-10-16T14:26:25.571Z,21.50
2022-10-16T14:29:18.403Z,21.50
2022-10-16T14:32:05.880Z,21.60
2022-10-16T14:34:55.188Z,21.60
2022-10-16T14:37:44.895Z,21.50
2022-10-16T14:40:36.555Z,21.30
2022-10-16T14:43:32.433Z,21.30
2022-10-16T14:46:27.099Z,21.40
2022-10-16T14:49:12.219Z,21.30
2022-10-16T14:51:59.018Z,21.30
2022-10-16T14:54:44.759Z,21.50
2022-10-16T14:57:34.450Z,21.50
2022-10-16T15:00:24.801Z,21.50
2022-10-16T15:03:13.182Z,21.50
2022-10-16T15:05:58.671Z,21.40
2022-10-16T15:08:44.337Z,21.20
2022-10-16T15:11:30.343Z,21.00
2022-10-16T15:17:00.703Z,20.60
2022-10-16T15:19:55.715Z,20.40
2022-10-16T15:22:41.154Z,20.20
2022-10-16T15:25:33.131Z,20.10
2022-10-16T15:28:22.356Z,19.90
2022-10-16T15:31:07.801Z,19.70
2022-10-16T15:33:57.248Z,19.60
2022-10-16T15:36:45.383Z,19.50
2022-10-16T15:39:30.819Z,19.50
2022-10-16T15:42:16.593Z,19.50
2022-10-16T15:45:02.254Z,19.40
2022-10-16T15:47:48.183Z,19.40
2022-10-16T15:50:34.067Z,19.30
2022-10-16T15:53:19.654Z,19.30
2022-10-16T15:56:06.787Z,19.20
2022-10-16T15:58:54.607Z,19.20
2022-10-16T16:01:40.196Z,19.10
2022-10-16T16:04:42.985Z,19.10
2022-10-16T16:07:28.823Z,19.00
2022-10-16T16:10:14.726Z,19.00
2022-10-16T16:13:00.271Z,18.90
2022-10-16T16:15:45.623Z,18.80
2022-10-16T16:18:31.168Z,18.80
2022-10-16T16:21:16.873Z,18.70
2022-10-16T16:24:08.584Z,18.60
2022-10-16T16:26:54.095Z,18.50
2022-10-16T16:29:39.490Z,18.40
2022-10-16T16:32:24.935Z,18.30
2022-10-16T16:35:10.188Z,18.20
2022-10-16T16:37:55.801Z,18.10
2022-10-16T16:40:41.401Z,18.10
2022-10-16T16:43:28.615Z,18.00
2022-10-16T16:46:15.023Z,18.00
2022-10-16T16:49:01.551Z,17.80
2022-10-16T16:51:47.108Z,17.80
2022-10-16T16:54:35.600Z,17.70
2022-10-16T16:57:21.375Z,17.60
2022-10-16T17:00:07.504Z,17.50
2022-10-16T17:02:52.717Z,17.50
2022-10-16T17:05:38.256Z,17.50
2022-10-16T17:08:23.839Z,17.40
2022-10-16T17:11:14.683Z,17.30
2022-10-16T17:14:01.258Z,17.30
2022-10-16T17:16:48.540Z,17.30
2022-10-16T17:19:39.213Z,17.20
2022-10-16T17:22:25.317Z,17.20
2022-10-16T17:25:10.753Z,17.20
2022-10-16T17:27:56.204Z,17.10
2022-10-16T17:30:42.543Z,17.10
2022-10-16T17:33:31.700Z,17.10
2022-10-16T17:36:18.845Z,17.00
2022-10-16T17:39:07.260Z,17.00
2022-10-16T17:41:52.449Z,17.00
2022-10-16T17:44:38.055Z,17.00
2022-10-16T17:47:23.713Z,16.90
2022-10-16T17:50:13.307Z,16.90
2022-10-16T17:53:01.360Z,16.90
2022-10-16T17:55:46.741Z,16.90
2022-10-16T17:58:35.098Z,16.80
2022-10-16T18:01:22.972Z,16.80
2022-10-16T18:04:13.857Z,16.80
2022-10-16T18:07:00.499Z,16.80
2022-10-16T18:10:09.752Z,16.80
2022-10-16T18:12:51.710Z,16.80
2022-10-16T18:15:37.166Z,16.80
2022-10-16T18:18:25.918Z,16.80
2022-10-16T18:21:17.343Z,16.70
2022-10-16T18:24:02.704Z,16.70
2022-10-16T18:26:56.696Z,16.70
2022-10-16T18:29:41.963Z,16.70
2022-10-16T18:32:28.123Z,16.70
2022-10-16T18:38:00.576Z,16.70
2022-10-16T18:40:46.067Z,16.70
2022-10-16T18:43:36.319Z,16.70
2022-10-16T18:46:23.650Z,16.60
2022-10-16T18:49:09.588Z,16.60
2022-10-16T18:51:56.753Z,16.60
2022-10-16T18:54:42.290Z,16.60
2022-10-16T18:57:30.908Z,16.60
2022-10-16T19:00:16.138Z,16.50
2022-10-16T19:03:03.391Z,16.50
2022-10-16T19:05:49.032Z,16.50
2022-10-16T19:08:37.447Z,16.50
2022-10-16T19:11:24.595Z,16.50
2022-10-16T19:14:15.206Z,16.50
2022-10-16T19:17:00.896Z,16.40
2022-10-16T19:19:46.133Z,16.40
2022-10-16T19:22:51.471Z,16.40
2022-10-16T19:25:38.142Z,16.40
2022-10-16T19:28:23.594Z,16.40
2022-10-16T19:31:28.375Z,16.40
2022-10-16T19:34:17.709Z,16.40
2022-10-16T19:37:06.188Z,16.40
2022-10-16T19:39:51.895Z,16.30
2022-10-16T19:42:44.591Z,16.30
2022-10-16T19:45:30.047Z,16.30
2022-10-16T19:48:15.710Z,16.20
2022-10-16T19:51:01.654Z,16.20
2022-10-16T19:53:47.647Z,16.20
2022-10-16T19:56:34.483Z,16.10
2022-10-16T19:59:20.502Z,16.10
2022-10-16T20:02:06.405Z,16.10
2022-10-16T20:04:51.775Z,16.10
2022-10-16T20:07:37.505Z,16.00
2022-10-16T20:10:25.120Z,16.00
2022-10-16T20:13:10.719Z,16.00
2022-10-16T20:15:57.033Z,16.00
2022-10-16T20:18:42.642Z,16.00
2022-10-16T20:21:30.428Z,16.00
2022-10-16T20:24:15.911Z,16.00
2022-10-16T20:27:02.350Z,16.00
2022-10-16T20:29:47.591Z,16.10
2022-10-16T20:32:33.154Z,16.10
2022-10-16T20:35:18.480Z,16.10
2022-10-16T20:38:04.047Z,16.10
2022-10-16T20:40:49.569Z,16.10
2022-10-16T20:43:36.395Z,16.10
2022-10-16T20:46:24.911Z,16.10
2022-10-16T20:49:11.021Z,16.10
2022-10-16T20:52:02.018Z,16.10
2022-10-16T20:54:47.591Z,16.10
2022-10-16T20:57:33.177Z,16.10
2022-10-16T21:00:18.971Z,16.10
2022-10-16T21:03:04.311Z,16.10
2022-10-16T21:05:49.952Z,16.20
2022-10-16T21:08:41.014Z,16.10
2022-10-16T21:11:27.645Z,16.10
2022-10-16T21:14:13.034Z,16.20
2022-10-16T21:16:58.716Z,16.10
2022-10-16T21:19:44.140Z,16.10
2022-10-16T21:22:31.433Z,16.10
2022-10-16T21:25:16.796Z,16.10
2022-10-16T21:28:02.400Z,16.00
2022-10-16T21:30:47.784Z,16.10
2022-10-16T21:33:33.024Z,16.00
2022-10-16T21:36:22.135Z,16.00
2022-10-16T21:39:10.500Z,16.00
2022-10-16T21:41:55.783Z,16.00
2022-10-16T21:44:40.920Z,16.00
2022-10-16T21:47:26.490Z,16.00
2022-10-16T21:50:11.812Z,16.10
2022-10-16T21:52:57.543Z,16.10
2022-10-16T21:55:45.751Z,16.10
2022-10-16T21:58:32.806Z,16.10
2022-10-16T22:01:20.998Z,16.10
2022-10-16T22:04:06.212Z,16.10
2022-10-16T22:06:51.912Z,16.20
2022-10-16T22:09:37.535Z,16.10
2022-10-16T22:12:25.287Z,16.20
2022-10-16T22:15:11.395Z,16.30
2022-10-16T22:17:57.985Z,16.30
2022-10-16T22:20:48.935Z,16.30
2022-10-16T22:23:34.851Z,16.40
2022-10-16T22:26:20.488Z,16.40
2022-10-16T22:29:07.105Z,16.40
2022-10-16T22:31:53.480Z,16.40
2022-10-16T22:34:38.767Z,16.40
2022-10-16T22:37:24.289Z,16.30
2022-10-16T22:40:13.207Z,16.30
2022-10-16T22:43:03.288Z,16.20
2022-10-16T22:45:48.919Z,16.10
2022-10-16T22:48:34.991Z,16.10
2022-10-16T22:51:20.714Z,16.10
2022-10-16T22:54:06.147Z,16.10
2022-10-16T22:56:51.727Z,16.00
2022-10-16T22:59:37.327Z,16.10
2022-10-16T23:02:23.100Z,16.10
2022-10-16T23:05:09.488Z,16.10
2022-10-16T23:07:58.013Z,16.20
2022-10-16T23:10:46.036Z,16.20
2022-10-16T23:13:31.236Z,16.20
2022-10-16T23:16:19.754Z,16.10
2022-10-16T23:19:05.107Z,16.10
2022-10-16T23:21:50.663Z,16.00
2022-10-16T23:24:36.387Z,15.90
2022-10-16T23:27:21.784Z,15.80
2022-10-16T23:30:07.870Z,15.80
2022-10-16T23:32:53.099Z,15.70
2022-10-16T23:35:41.732Z,15.70
2022-10-16T23:38:27.439Z,15.70
2022-10-16T23:41:13.224Z,15.60
2022-10-16T23:44:04.939Z,15.60
2022-10-16T23:46:50.472Z,15.50
2022-10-16T23:49:36.537Z,15.50
2022-10-16T23:52:21.916Z,15.50
2022-10-16T23:55:07.749Z,15.40
2022-10-16T23:57:53.591Z,15.40
